sensor_id;sensor_type;location;lat;lon;timestamp;P1;durP1;ratioP1;P2;durP2;ratioP2
611;SDS011;293;53.888;11.464;2024-03-23T00:53:43;27.33;;;7.80;;
611;SDS011;293;53.888;11.464;2024-03-23T00:56:09;27.00;;;6.93;;
611;SDS011;293;53.888;11.464;2024-03-23T00:58:36;21.50;;;5.70;;
611;SDS011;293;53.888;11.464;2024-03-23T01:01:02;17.57;;;6.00;;
611;SDS011;293;53.888;11.464;2024-03-23T01:03:29;22.20;;;5.27;;
611;SDS011;293;53.888;11.464;2024-03-23T01:05:58;19.17;;;5.40;;
611;SDS011;293;53.888;11.464;2024-03-23T01:08:25;17.30;;;5.20;;
611;SDS011;293;53.888;11.464;2024-03-23T01:10:56;9.53;;;3.70;;
611;SDS011;293;53.888;11.464;2024-03-23T01:13:24;33.57;;;7.43;;
611;SDS011;293;53.888;11.464;2024-03-23T01:15:50;16.37;;;4.13;;
611;SDS011;293;53.888;11.464;2024-03-23T01:18:17;16.07;;;4.93;;
611;SDS011;293;53.888;11.464;2024-03-23T01:20:43;13.87;;;5.00;;
611;SDS011;293;53.888;11.464;2024-03-23T01:23:10;16.60;;;4.43;;
611;SDS011;293;53.888;11.464;2024-03-23T01:25:37;20.17;;;5.83;;
611;SDS011;293;53.888;11.464;2024-03-23T01:28:05;15.60;;;4.50;;
611;SDS011;293;53.888;11.464;2024-03-23T01:30:31;19.63;;;4.57;;
611;SDS011;293;53.888;11.464;2024-03-23T01:32:59;16.10;;;4.33;;
611;SDS011;293;53.888;11.464;2024-03-23T01:35:25;20.30;;;5.33;;
611;SDS011;293;53.888;11.464;2024-03-23T01:37:52;26.83;;;6.57;;
611;SDS011;293;53.888;11.464;2024-03-23T01:40:17;24.63;;;5.67;;
611;SDS011;293;53.888;11.464;2024-03-23T01:42:54;13.10;;;4.63;;
611;SDS011;293;53.888;11.464;2024-03-23T01:45:22;17.93;;;4.57;;
611;SDS011;293;53.888;11.464;2024-03-23T01:47:49;27.00;;;5.30;;
611;SDS011;293;53.888;11.464;2024-03-23T01:50:15;14.77;;;4.57;;
611;SDS011;293;53.888;11.464;2024-03-23T01:52:43;20.23;;;5.20;;
611;SDS011;293;53.888;11.464;2024-03-23T01:55:09;17.30;;;5.53;;
611;SDS011;293;53.888;11.464;2024-03-23T01:57:37;19.50;;;4.90;;
611;SDS011;293;53.888;11.464;2024-03-23T02:00:03;22.47;;;5.60;;
611;SDS011;293;53.888;11.464;2024-03-23T02:02:32;12.27;;;3.90;;
611;SDS011;293;53.888;11.464;2024-03-23T02:04:58;15.40;;;4.37;;
611;SDS011;293;53.888;11.464;2024-03-23T02:07:25;30.20;;;4.90;;
611;SDS011;293;53.888;11.464;2024-03-23T02:09:51;12.80;;;4.83;;
611;SDS011;293;53.888;11.464;2024-03-23T02:12:18;12.40;;;4.87;;
611;SDS011;293;53.888;11.464;2024-03-23T02:14:46;20.03;;;4.80;;
611;SDS011;293;53.888;11.464;2024-03-23T02:17:13;11.77;;;3.83;;
611;SDS011;293;53.888;11.464;2024-03-23T02:19:40;18.20;;;4.03;;
611;SDS011;293;53.888;11.464;2024-03-23T02:22:07;13.17;;;4.10;;
611;SDS011;293;53.888;11.464;2024-03-23T02:24:36;21.73;;;3.70;;
611;SDS011;293;53.888;11.464;2024-03-23T02:27:04;20.83;;;3.87;;
611;SDS011;293;53.888;11.464;2024-03-23T02:29:30;24.17;;;4.60;;
611;SDS011;293;53.888;11.464;2024-03-23T02:31:57;14.80;;;3.53;;
611;SDS011;293;53.888;11.464;2024-03-23T02:34:24;22.03;;;4.90;;
611;SDS011;293;53.888;11.464;2024-03-23T02:36:51;16.70;;;4.30;;
611;SDS011;293;53.888;11.464;2024-03-23T02:39:16;22.60;;;4.73;;
611;SDS011;293;53.888;11.464;2024-03-23T02:41:45;12.87;;;4.37;;
611;SDS011;293;53.888;11.464;2024-03-23T02:44:10;19.83;;;4.93;;
611;SDS011;293;53.888;11.464;2024-03-23T02:46:37;13.80;;;4.37;;
611;SDS011;293;53.888;11.464;2024-03-23T02:49:03;13.33;;;3.70;;
611;SDS011;293;53.888;11.464;2024-03-23T02:51:30;13.47;;;3.50;;
611;SDS011;293;53.888;11.464;2024-03-23T02:53:56;18.97;;;5.20;;
611;SDS011;293;53.888;11.464;2024-03-23T02:56:23;12.97;;;4.03;;
611;SDS011;293;53.888;11.464;2024-03-23T02:58:50;17.63;;;4.60;;
611;SDS011;293;53.888;11.464;2024-03-23T03:01:17;22.50;;;4.63;;
611;SDS011;293;53.888;11.464;2024-03-23T03:03:43;17.00;;;5.40;;
611;SDS011;293;53.888;11.464;2024-03-23T03:06:10;17.00;;;5.40;;
611;SDS011;293;53.888;11.464;2024-03-23T03:08:36;18.80;;;4.73;;
611;SDS011;293;53.888;11.464;2024-03-23T03:11:03;14.93;;;4.97;;
611;SDS011;293;53.888;11.464;2024-03-23T03:13:29;16.57;;;4.00;;
611;SDS011;293;53.888;11.464;2024-03-23T03:15:57;12.37;;;3.67;;
611;SDS011;293;53.888;11.464;2024-03-23T03:18:23;12.67;;;3.63;;
611;SDS011;293;53.888;11.464;2024-03-23T03:20:53;19.03;;;3.63;;
611;SDS011;293;53.888;11.464;2024-03-23T03:23:20;16.97;;;4.80;;
611;SDS011;293;53.888;11.464;2024-03-23T03:25:47;18.93;;;4.50;;
611;SDS011;293;53.888;11.464;2024-03-23T03:28:12;17.83;;;5.03;;
611;SDS011;293;53.888;11.464;2024-03-23T03:30:39;14.50;;;3.50;;
611;SDS011;293;53.888;11.464;2024-03-23T03:33:07;19.60;;;5.10;;
611;SDS011;293;53.888;11.464;2024-03-23T03:35:34;22.13;;;5.23;;
611;SDS011;293;53.888;11.464;2024-03-23T03:38:00;17.60;;;4.03;;
611;SDS011;293;53.888;11.464;2024-03-23T03:40:26;16.43;;;4.33;;
611;SDS011;293;53.888;11.464;2024-03-23T03:42:52;12.33;;;3.47;;
611;SDS011;293;53.888;11.464;2024-03-23T03:45:19;8.13;;;3.70;;
611;SDS011;293;53.888;11.464;2024-03-23T03:47:45;16.87;;;4.07;;
611;SDS011;293;53.888;11.464;2024-03-23T03:50:13;13.03;;;3.70;;
611;SDS011;293;53.888;11.464;2024-03-23T03:52:39;16.30;;;3.13;;
611;SDS011;293;53.888;11.464;2024-03-23T03:55:12;12.20;;;4.00;;
611;SDS011;293;53.888;11.464;2024-03-23T03:57:39;15.50;;;4.43;;
611;SDS011;293;53.888;11.464;2024-03-23T04:00:06;14.40;;;3.90;;
611;SDS011;293;53.888;11.464;2024-03-23T04:02:36;19.77;;;3.50;;
611;SDS011;293;53.888;11.464;2024-03-23T04:05:03;20.87;;;5.83;;
611;SDS011;293;53.888;11.464;2024-03-23T04:07:30;10.10;;;3.83;;
611;SDS011;293;53.888;11.464;2024-03-23T04:09:57;15.80;;;5.07;;
611;SDS011;293;53.888;11.464;2024-03-23T04:12:23;20.97;;;3.93;;
611;SDS011;293;53.888;11.464;2024-03-23T04:14:50;19.00;;;3.87;;
611;SDS011;293;53.888;11.464;2024-03-23T04:17:16;13.60;;;4.13;;
611;SDS011;293;53.888;11.464;2024-03-23T04:19:44;16.97;;;4.20;;
611;SDS011;293;53.888;11.464;2024-03-23T04:22:10;15.37;;;3.80;;
611;SDS011;293;53.888;11.464;2024-03-23T04:24:38;18.60;;;5.80;;
611;SDS011;293;53.888;11.464;2024-03-23T04:27:04;8.10;;;3.60;;
611;SDS011;293;53.888;11.464;2024-03-23T04:29:31;18.43;;;5.03;;
611;SDS011;293;53.888;11.464;2024-03-23T04:31:57;14.17;;;4.87;;
611;SDS011;293;53.888;11.464;2024-03-23T04:34:24;19.73;;;4.27;;
611;SDS011;293;53.888;11.464;2024-03-23T04:36:50;20.50;;;4.77;;
611;SDS011;293;53.888;11.464;2024-03-23T04:39:16;12.60;;;3.43;;
611;SDS011;293;53.888;11.464;2024-03-23T04:41:46;13.50;;;3.80;;
611;SDS011;293;53.888;11.464;2024-03-23T04:44:12;12.63;;;4.30;;
611;SDS011;293;53.888;11.464;2024-03-23T04:46:39;10.30;;;4.77;;
611;SDS011;293;53.888;11.464;2024-03-23T04:49:06;16.00;;;4.50;;
611;SDS011;293;53.888;11.464;2024-03-23T04:51:35;16.20;;;3.93;;
611;SDS011;293;53.888;11.464;2024-03-23T04:54:03;17.30;;;4.10;;
611;SDS011;293;53.888;11.464;2024-03-23T04:56:31;16.03;;;3.47;;
611;SDS011;293;53.888;11.464;2024-03-23T04:58:59;15.47;;;4.27;;
611;SDS011;293;53.888;11.464;2024-03-23T05:01:26;14.53;;;4.50;;
611;SDS011;293;53.888;11.464;2024-03-23T05:03:53;16.13;;;4.53;;
611;SDS011;293;53.888;11.464;2024-03-23T05:06:19;17.20;;;4.20;;
611;SDS011;293;53.888;11.464;2024-03-23T05:08:46;17.10;;;5.47;;
611;SDS011;293;53.888;11.464;2024-03-23T05:11:12;17.50;;;3.50;;
611;SDS011;293;53.888;11.464;2024-03-23T05:13:39;11.97;;;3.70;;
611;SDS011;293;53.888;11.464;2024-03-23T05:16:06;21.10;;;5.00;;
611;SDS011;293;53.888;11.464;2024-03-23T05:18:33;12.80;;;4.10;;
611;SDS011;293;53.888;11.464;2024-03-23T05:20:59;21.17;;;5.57;;
611;SDS011;293;53.888;11.464;2024-03-23T05:23:26;16.67;;;4.27;;
611;SDS011;293;53.888;11.464;2024-03-23T05:25:54;22.10;;;4.33;;
611;SDS011;293;53.888;11.464;2024-03-23T05:28:21;15.40;;;4.13;;
611;SDS011;293;53.888;11.464;2024-03-23T05:30:49;21.57;;;4.60;;
611;SDS011;293;53.888;11.464;2024-03-23T05:33:18;16.80;;;4.70;;
611;SDS011;293;53.888;11.464;2024-03-23T05:35:45;13.80;;;3.73;;
611;SDS011;293;53.888;11.464;2024-03-23T05:38:12;13.53;;;3.93;;
611;SDS011;293;53.888;11.464;2024-03-23T05:40:38;18.97;;;4.50;;
611;SDS011;293;53.888;11.464;2024-03-23T05:43:06;20.30;;;4.80;;
611;SDS011;293;53.888;11.464;2024-03-23T05:45:32;18.13;;;4.63;;
611;SDS011;293;53.888;11.464;2024-03-23T05:47:59;15.43;;;5.37;;
611;SDS011;293;53.888;11.464;2024-03-23T05:50:26;10.83;;;4.60;;
611;SDS011;293;53.888;11.464;2024-03-23T05:52:53;20.37;;;4.63;;
611;SDS011;293;53.888;11.464;2024-03-23T05:55:20;13.33;;;4.77;;
611;SDS011;293;53.888;11.464;2024-03-23T05:57:46;19.20;;;4.87;;
611;SDS011;293;53.888;11.464;2024-03-23T06:00:13;16.67;;;5.13;;
611;SDS011;293;53.888;11.464;2024-03-23T06:02:41;20.07;;;4.80;;
611;SDS011;293;53.888;11.464;2024-03-23T06:05:09;20.20;;;5.20;;
611;SDS011;293;53.888;11.464;2024-03-23T06:07:36;16.53;;;4.13;;
611;SDS011;293;53.888;11.464;2024-03-23T06:10:04;14.87;;;5.47;;
611;SDS011;293;53.888;11.464;2024-03-23T06:12:30;17.53;;;6.17;;
611;SDS011;293;53.888;11.464;2024-03-23T06:14:57;15.73;;;4.37;;
611;SDS011;293;53.888;11.464;2024-03-23T06:17:23;15.60;;;5.07;;
611;SDS011;293;53.888;11.464;2024-03-23T06:19:50;12.83;;;4.17;;
611;SDS011;293;53.888;11.464;2024-03-23T06:22:16;19.80;;;4.63;;
611;SDS011;293;53.888;11.464;2024-03-23T06:24:45;15.93;;;5.53;;
611;SDS011;293;53.888;11.464;2024-03-23T06:27:11;14.70;;;5.53;;
611;SDS011;293;53.888;11.464;2024-03-23T06:29:38;22.23;;;5.20;;
611;SDS011;293;53.888;11.464;2024-03-23T06:32:04;18.53;;;4.07;;
611;SDS011;293;53.888;11.464;2024-03-23T06:34:31;16.23;;;3.93;;
611;SDS011;293;53.888;11.464;2024-03-23T06:36:56;19.40;;;5.90;;
611;SDS011;293;53.888;11.464;2024-03-23T06:39:23;18.43;;;4.67;;
611;SDS011;293;53.888;11.464;2024-03-23T06:41:54;20.17;;;5.40;;
611;SDS011;293;53.888;11.464;2024-03-23T06:44:21;28.87;;;6.23;;
611;SDS011;293;53.888;11.464;2024-03-23T06:46:47;14.17;;;4.33;;
611;SDS011;293;53.888;11.464;2024-03-23T06:49:14;19.07;;;5.13;;
611;SDS011;293;53.888;11.464;2024-03-23T06:51:41;17.90;;;4.93;;
611;SDS011;293;53.888;11.464;2024-03-23T06:54:07;15.30;;;4.17;;
611;SDS011;293;53.888;11.464;2024-03-23T06:56:34;12.83;;;4.70;;
611;SDS011;293;53.888;11.464;2024-03-23T06:59:02;14.63;;;3.90;;
611;SDS011;293;53.888;11.464;2024-03-23T07:01:28;17.07;;;4.27;;
611;SDS011;293;53.888;11.464;2024-03-23T07:03:54;13.13;;;4.60;;
611;SDS011;293;53.888;11.464;2024-03-23T07:06:21;19.33;;;4.40;;
611;SDS011;293;53.888;11.464;2024-03-23T07:08:47;16.90;;;5.00;;
611;SDS011;293;53.888;11.464;2024-03-23T07:11:18;21.70;;;5.17;;
611;SDS011;293;53.888;11.464;2024-03-23T07:13:45;21.57;;;4.87;;
611;SDS011;293;53.888;11.464;2024-03-23T07:16:13;30.23;;;6.57;;
611;SDS011;293;53.888;11.464;2024-03-23T07:18:39;19.50;;;5.47;;
611;SDS011;293;53.888;11.464;2024-03-23T07:21:06;27.73;;;5.10;;
611;SDS011;293;53.888;11.464;2024-03-23T07:23:32;13.63;;;6.27;;
611;SDS011;293;53.888;11.464;2024-03-23T07:26:00;22.60;;;4.87;;
611;SDS011;293;53.888;11.464;2024-03-23T07:28:27;17.00;;;5.60;;
611;SDS011;293;53.888;11.464;2024-03-23T07:31:03;15.73;;;5.27;;
611;SDS011;293;53.888;11.464;2024-03-23T07:33:32;21.50;;;5.43;;
611;SDS011;293;53.888;11.464;2024-03-23T07:35:59;23.83;;;6.73;;
611;SDS011;293;53.888;11.464;2024-03-23T07:38:26;19.10;;;5.27;;
611;SDS011;293;53.888;11.464;2024-03-23T07:41:02;24.53;;;7.13;;
611;SDS011;293;53.888;11.464;2024-03-23T07:43:28;17.03;;;5.00;;
611;SDS011;293;53.888;11.464;2024-03-23T07:45:55;28.53;;;6.57;;
611;SDS011;293;53.888;11.464;2024-03-23T07:48:21;17.20;;;6.13;;
611;SDS011;293;53.888;11.464;2024-03-23T07:50:57;23.70;;;7.43;;
611;SDS011;293;53.888;11.464;2024-03-23T07:53:26;16.37;;;5.53;;
611;SDS011;293;53.888;11.464;2024-03-23T07:55:54;19.33;;;5.33;;
611;SDS011;293;53.888;11.464;2024-03-23T07:58:21;20.50;;;5.70;;
611;SDS011;293;53.888;11.464;2024-03-23T08:00:48;17.90;;;4.57;;
611;SDS011;293;53.888;11.464;2024-03-23T08:03:14;18.50;;;4.37;;
611;SDS011;293;53.888;11.464;2024-03-23T08:05:41;16.50;;;5.50;;
611;SDS011;293;53.888;11.464;2024-03-23T08:08:08;20.40;;;5.83;;
611;SDS011;293;53.888;11.464;2024-03-23T08:10:35;15.80;;;5.00;;
611;SDS011;293;53.888;11.464;2024-03-23T08:13:01;15.10;;;5.00;;
611;SDS011;293;53.888;11.464;2024-03-23T08:15:29;20.23;;;9.27;;
611;SDS011;293;53.888;11.464;2024-03-23T08:17:58;22.87;;;4.67;;
611;SDS011;293;53.888;11.464;2024-03-23T08:20:25;17.50;;;4.90;;
611;SDS011;293;53.888;11.464;2024-03-23T08:22:52;17.77;;;5.00;;
611;SDS011;293;53.888;11.464;2024-03-23T08:25:20;15.10;;;3.97;;
611;SDS011;293;53.888;11.464;2024-03-23T08:27:46;22.10;;;6.90;;
611;SDS011;293;53.888;11.464;2024-03-23T08:30:13;18.30;;;4.87;;
611;SDS011;293;53.888;11.464;2024-03-23T08:32:39;15.20;;;4.70;;
611;SDS011;293;53.888;11.464;2024-03-23T08:35:07;16.17;;;5.13;;
611;SDS011;293;53.888;11.464;2024-03-23T08:37:34;17.83;;;4.57;;
611;SDS011;293;53.888;11.464;2024-03-23T08:40:01;18.20;;;6.50;;
611;SDS011;293;53.888;11.464;2024-03-23T08:42:30;14.50;;;5.67;;
611;SDS011;293;53.888;11.464;2024-03-23T08:44:57;20.40;;;4.50;;
611;SDS011;293;53.888;11.464;2024-03-23T08:47:23;21.10;;;5.53;;
611;SDS011;293;53.888;11.464;2024-03-23T08:49:50;17.77;;;4.47;;
611;SDS011;293;53.888;11.464;2024-03-23T08:52:16;19.47;;;5.53;;
611;SDS011;293;53.888;11.464;2024-03-23T08:54:43;18.70;;;6.17;;
611;SDS011;293;53.888;11.464;2024-03-23T08:57:09;12.00;;;3.60;;
611;SDS011;293;53.888;11.464;2024-03-23T08:59:38;15.87;;;4.37;;
611;SDS011;293;53.888;11.464;2024-03-23T09:02:04;15.80;;;5.00;;
611;SDS011;293;53.888;11.464;2024-03-23T09:04:31;12.47;;;4.43;;
611;SDS011;293;53.888;11.464;2024-03-23T09:06:57;11.30;;;4.37;;
611;SDS011;293;53.888;11.464;2024-03-23T09:09:25;24.07;;;6.33;;
611;SDS011;293;53.888;11.464;2024-03-23T09:11:58;17.63;;;4.67;;
611;SDS011;293;53.888;11.464;2024-03-23T09:14:25;17.40;;;4.80;;
611;SDS011;293;53.888;11.464;2024-03-23T09:16:53;17.07;;;4.63;;
611;SDS011;293;53.888;11.464;2024-03-23T09:19:20;11.90;;;4.30;;
611;SDS011;293;53.888;11.464;2024-03-23T09:21:46;20.63;;;5.17;;
611;SDS011;293;53.888;11.464;2024-03-23T09:24:13;20.50;;;4.70;;
611;SDS011;293;53.888;11.464;2024-03-23T09:26:39;14.87;;;4.37;;
611;SDS011;293;53.888;11.464;2024-03-23T09:29:05;16.20;;;4.50;;
611;SDS011;293;53.888;11.464;2024-03-23T09:31:31;13.30;;;5.67;;
611;SDS011;293;53.888;11.464;2024-03-23T09:34:00;21.80;;;4.27;;
611;SDS011;293;53.888;11.464;2024-03-23T09:36:26;18.13;;;3.87;;
611;SDS011;293;53.888;11.464;2024-03-23T09:38:53;14.40;;;5.10;;
611;SDS011;293;53.888;11.464;2024-03-23T09:41:18;14.37;;;3.90;;
611;SDS011;293;53.888;11.464;2024-03-23T09:43:45;23.10;;;4.57;;
611;SDS011;293;53.888;11.464;2024-03-23T09:46:13;8.97;;;3.80;;
611;SDS011;293;53.888;11.464;2024-03-23T09:48:40;16.60;;;4.80;;
611;SDS011;293;53.888;11.464;2024-03-23T09:51:10;13.43;;;4.70;;
611;SDS011;293;53.888;11.464;2024-03-23T09:53:37;17.10;;;6.30;;
611;SDS011;293;53.888;11.464;2024-03-23T09:56:03;12.63;;;4.07;;
611;SDS011;293;53.888;11.464;2024-03-23T09:58:30;12.13;;;4.67;;
611;SDS011;293;53.888;11.464;2024-03-23T10:00:57;14.97;;;4.03;;
611;SDS011;293;53.888;11.464;2024-03-23T10:03:24;33.33;;;21.87;;
611;SDS011;293;53.888;11.464;2024-03-23T10:05:59;25.27;;;15.00;;
611;SDS011;293;53.888;11.464;2024-03-23T10:08:28;13.73;;;4.20;;
611;SDS011;293;53.888;11.464;2024-03-23T10:10:55;13.13;;;2.90;;
611;SDS011;293;53.888;11.464;2024-03-23T10:13:25;8.93;;;3.23;;
611;SDS011;293;53.888;11.464;2024-03-23T10:15:55;21.77;;;3.73;;
611;SDS011;293;53.888;11.464;2024-03-23T10:18:23;18.07;;;3.87;;
611;SDS011;293;53.888;11.464;2024-03-23T10:20:51;12.63;;;3.20;;
611;SDS011;293;53.888;11.464;2024-03-23T10:23:33;17.87;;;3.07;;
611;SDS011;293;53.888;11.464;2024-03-23T10:26:06;13.80;;;3.77;;
611;SDS011;293;53.888;11.464;2024-03-23T10:28:50;9.50;;;2.83;;
611;SDS011;293;53.888;11.464;2024-03-23T10:31:16;10.10;;;3.00;;
611;SDS011;293;53.888;11.464;2024-03-23T10:33:44;11.30;;;2.10;;
611;SDS011;293;53.888;11.464;2024-03-23T10:36:10;11.30;;;3.87;;
611;SDS011;293;53.888;11.464;2024-03-23T10:38:40;11.00;;;3.73;;
611;SDS011;293;53.888;11.464;2024-03-23T10:41:06;10.30;;;3.00;;
611;SDS011;293;53.888;11.464;2024-03-23T10:43:34;13.47;;;2.50;;
611;SDS011;293;53.888;11.464;2024-03-23T10:46:01;11.67;;;3.10;;
611;SDS011;293;53.888;11.464;2024-03-23T10:48:29;6.77;;;2.67;;
611;SDS011;293;53.888;11.464;2024-03-23T10:50:55;3.40;;;1.40;;
611;SDS011;293;53.888;11.464;2024-03-23T10:53:22;11.13;;;2.77;;
611;SDS011;293;53.888;11.464;2024-03-23T10:55:52;7.30;;;2.90;;
611;SDS011;293;53.888;11.464;2024-03-23T10:58:21;8.30;;;3.10;;
611;SDS011;293;53.888;11.464;2024-03-23T11:00:51;11.53;;;3.10;;
611;SDS011;293;53.888;11.464;2024-03-23T11:03:32;12.77;;;2.47;;
611;SDS011;293;53.888;11.464;2024-03-23T11:05:59;13.30;;;3.23;;
611;SDS011;293;53.888;11.464;2024-03-23T11:08:30;7.13;;;3.13;;
611;SDS011;293;53.888;11.464;2024-03-23T11:14:01;7.80;;;2.50;;
611;SDS011;293;53.888;11.464;2024-03-23T11:16:48;9.17;;;2.20;;
611;SDS011;293;53.888;11.464;2024-03-23T11:19:34;3.90;;;1.90;;
611;SDS011;293;53.888;11.464;2024-03-23T11:22:02;11.40;;;3.33;;
611;SDS011;293;53.888;11.464;2024-03-23T11:24:30;13.50;;;2.17;;
611;SDS011;293;53.888;11.464;2024-03-23T11:26:57;8.37;;;3.73;;
611;SDS011;293;53.888;11.464;2024-03-23T11:29:26;6.83;;;2.73;;
611;SDS011;293;53.888;11.464;2024-03-23T11:31:54;7.53;;;2.60;;
611;SDS011;293;53.888;11.464;2024-03-23T11:34:20;7.60;;;2.67;;
611;SDS011;293;53.888;11.464;2024-03-23T11:36:48;9.20;;;1.80;;
611;SDS011;293;53.888;11.464;2024-03-23T11:39:16;10.10;;;2.20;;
611;SDS011;293;53.888;11.464;2024-03-23T11:41:47;4.03;;;1.77;;
611;SDS011;293;53.888;11.464;2024-03-23T11:44:19;8.33;;;3.13;;
611;SDS011;293;53.888;11.464;2024-03-23T11:46:53;8.97;;;2.50;;
611;SDS011;293;53.888;11.464;2024-03-23T11:49:19;6.40;;;2.37;;
611;SDS011;293;53.888;11.464;2024-03-23T11:51:49;7.73;;;2.90;;
611;SDS011;293;53.888;11.464;2024-03-23T11:54:20;9.43;;;2.63;;
611;SDS011;293;53.888;11.464;2024-03-23T11:56:54;6.13;;;2.17;;
611;SDS011;293;53.888;11.464;2024-03-23T11:59:30;4.20;;;1.80;;
611;SDS011;293;53.888;11.464;2024-03-23T12:02:05;12.23;;;2.70;;
611;SDS011;293;53.888;11.464;2024-03-23T12:04:32;7.27;;;2.47;;
611;SDS011;293;53.888;11.464;2024-03-23T12:07:13;10.57;;;2.50;;
611;SDS011;293;53.888;11.464;2024-03-23T12:09:41;5.90;;;2.50;;
611;SDS011;293;53.888;11.464;2024-03-23T12:12:08;4.80;;;2.27;;
611;SDS011;293;53.888;11.464;2024-03-23T12:14:36;9.77;;;2.47;;
611;SDS011;293;53.888;11.464;2024-03-23T12:17:11;6.33;;;1.77;;
611;SDS011;293;53.888;11.464;2024-03-23T12:19:38;11.47;;;2.90;;
611;SDS011;293;53.888;11.464;2024-03-23T12:22:06;4.53;;;1.47;;
611;SDS011;293;53.888;11.464;2024-03-23T12:24:33;6.73;;;2.17;;
611;SDS011;293;53.888;11.464;2024-03-23T12:27:01;3.13;;;1.90;;
611;SDS011;293;53.888;11.464;2024-03-23T12:29:29;4.20;;;1.97;;
611;SDS011;293;53.888;11.464;2024-03-23T12:31:58;3.07;;;1.00;;
611;SDS011;293;53.888;11.464;2024-03-23T12:34:26;6.03;;;1.70;;
611;SDS011;293;53.888;11.464;2024-03-23T12:36:53;8.33;;;1.33;;
611;SDS011;293;53.888;11.464;2024-03-23T12:39:19;4.57;;;1.37;;
611;SDS011;293;53.888;11.464;2024-03-23T12:41:49;1.80;;;1.47;;
611;SDS011;293;53.888;11.464;2024-03-23T12:44:17;4.83;;;1.47;;
611;SDS011;293;53.888;11.464;2024-03-23T12:46:44;4.90;;;1.70;;
611;SDS011;293;53.888;11.464;2024-03-23T12:49:10;5.00;;;1.50;;
611;SDS011;293;53.888;11.464;2024-03-23T12:51:38;5.03;;;1.70;;
611;SDS011;293;53.888;11.464;2024-03-23T12:54:05;64.90;;;52.20;;
611;SDS011;293;53.888;11.464;2024-03-23T12:56:32;19.03;;;10.33;;
611;SDS011;293;53.888;11.464;2024-03-23T12:58:58;4.20;;;1.30;;
611;SDS011;293;53.888;11.464;2024-03-23T13:01:25;8.40;;;1.47;;
611;SDS011;293;53.888;11.464;2024-03-23T13:03:51;3.00;;;1.17;;
611;SDS011;293;53.888;11.464;2024-03-23T13:06:18;3.53;;;1.87;;
611;SDS011;293;53.888;11.464;2024-03-23T13:08:46;2.43;;;1.17;;
611;SDS011;293;53.888;11.464;2024-03-23T13:11:15;4.83;;;1.83;;
611;SDS011;293;53.888;11.464;2024-03-23T13:13:41;5.40;;;2.33;;
611;SDS011;293;53.888;11.464;2024-03-23T13:16:08;8.43;;;2.20;;
611;SDS011;293;53.888;11.464;2024-03-23T13:18:34;14.03;;;3.00;;
611;SDS011;293;53.888;11.464;2024-03-23T13:21:01;15.40;;;6.40;;
611;SDS011;293;53.888;11.464;2024-03-23T13:23:27;5.53;;;2.10;;
611;SDS011;293;53.888;11.464;2024-03-23T13:25:57;9.77;;;5.10;;
611;SDS011;293;53.888;11.464;2024-03-23T13:28:23;4.93;;;2.03;;
611;SDS011;293;53.888;11.464;2024-03-23T13:30:51;8.00;;;2.90;;
611;SDS011;293;53.888;11.464;2024-03-23T13:33:17;5.30;;;2.20;;
611;SDS011;293;53.888;11.464;2024-03-23T13:35:50;9.40;;;2.33;;
611;SDS011;293;53.888;11.464;2024-03-23T13:38:17;8.30;;;2.50;;
611;SDS011;293;53.888;11.464;2024-03-23T13:40:51;3.00;;;2.33;;
611;SDS011;293;53.888;11.464;2024-03-23T13:43:18;2.63;;;1.70;;
611;SDS011;293;53.888;11.464;2024-03-23T13:45:46;10.30;;;1.60;;
611;SDS011;293;53.888;11.464;2024-03-23T13:48:13;3.17;;;1.10;;
611;SDS011;293;53.888;11.464;2024-03-23T13:50:40;11.23;;;1.63;;
611;SDS011;293;53.888;11.464;2024-03-23T13:53:06;6.20;;;1.87;;
611;SDS011;293;53.888;11.464;2024-03-23T13:55:34;4.43;;;1.80;;
611;SDS011;293;53.888;11.464;2024-03-23T13:58:01;2.20;;;1.20;;
611;SDS011;293;53.888;11.464;2024-03-23T14:00:29;2.60;;;0.90;;
611;SDS011;293;53.888;11.464;2024-03-23T14:02:57;3.90;;;1.30;;
611;SDS011;293;53.888;11.464;2024-03-23T14:05:24;1.07;;;0.63;;
611;SDS011;293;53.888;11.464;2024-03-23T14:07:50;2.80;;;0.90;;
611;SDS011;293;53.888;11.464;2024-03-23T14:10:17;5.53;;;1.33;;
611;SDS011;293;53.888;11.464;2024-03-23T14:12:43;4.03;;;0.87;;
611;SDS011;293;53.888;11.464;2024-03-23T14:15:10;4.80;;;1.50;;
611;SDS011;293;53.888;11.464;2024-03-23T14:17:37;3.73;;;1.20;;
611;SDS011;293;53.888;11.464;2024-03-23T14:20:05;5.73;;;0.87;;
611;SDS011;293;53.888;11.464;2024-03-23T14:22:34;1.43;;;0.80;;
611;SDS011;293;53.888;11.464;2024-03-23T14:25:01;3.10;;;1.70;;
611;SDS011;293;53.888;11.464;2024-03-23T14:27:27;1.53;;;1.30;;
611;SDS011;293;53.888;11.464;2024-03-23T14:29:54;1.07;;;0.77;;
611;SDS011;293;53.888;11.464;2024-03-23T14:32:21;4.30;;;0.90;;
611;SDS011;293;53.888;11.464;2024-03-23T14:34:50;3.47;;;2.10;;
611;SDS011;293;53.888;11.464;2024-03-23T14:37:19;2.37;;;1.30;;
611;SDS011;293;53.888;11.464;2024-03-23T14:39:46;1.93;;;1.40;;
611;SDS011;293;53.888;11.464;2024-03-23T14:42:11;4.20;;;1.17;;
611;SDS011;293;53.888;11.464;2024-03-23T14:44:38;2.83;;;1.03;;
611;SDS011;293;53.888;11.464;2024-03-23T14:47:04;5.57;;;1.33;;
611;SDS011;293;53.888;11.464;2024-03-23T14:49:31;3.63;;;2.40;;
611;SDS011;293;53.888;11.464;2024-03-23T14:51:59;4.27;;;3.27;;
611;SDS011;293;53.888;11.464;2024-03-23T14:54:26;4.97;;;1.40;;
611;SDS011;293;53.888;11.464;2024-03-23T14:56:52;3.97;;;1.30;;
611;SDS011;293;53.888;11.464;2024-03-23T14:59:19;4.77;;;1.53;;
611;SDS011;293;53.888;11.464;2024-03-23T15:01:45;2.63;;;1.20;;
611;SDS011;293;53.888;11.464;2024-03-23T15:04:12;2.80;;;1.30;;
611;SDS011;293;53.888;11.464;2024-03-23T15:06:38;5.10;;;1.13;;
611;SDS011;293;53.888;11.464;2024-03-23T15:09:06;1.90;;;1.20;;
611;SDS011;293;53.888;11.464;2024-03-23T15:11:34;3.10;;;0.97;;
611;SDS011;293;53.888;11.464;2024-03-23T15:14:01;3.13;;;1.37;;
611;SDS011;293;53.888;11.464;2024-03-23T15:16:27;3.00;;;0.90;;
611;SDS011;293;53.888;11.464;2024-03-23T15:18:54;5.90;;;3.03;;
611;SDS011;293;53.888;11.464;2024-03-23T15:21:19;12.47;;;6.93;;
611;SDS011;293;53.888;11.464;2024-03-23T15:23:49;7.83;;;3.87;;
611;SDS011;293;53.888;11.464;2024-03-23T15:26:16;8.20;;;3.67;;
611;SDS011;293;53.888;11.464;2024-03-23T15:28:47;2.17;;;1.50;;
611;SDS011;293;53.888;11.464;2024-03-23T15:31:34;1.60;;;1.07;;
611;SDS011;293;53.888;11.464;2024-03-23T15:34:02;1.63;;;1.37;;
611;SDS011;293;53.888;11.464;2024-03-23T15:36:29;2.53;;;1.27;;
611;SDS011;293;53.888;11.464;2024-03-23T15:38:56;4.60;;;1.27;;
611;SDS011;293;53.888;11.464;2024-03-23T15:41:24;3.90;;;1.60;;
611;SDS011;293;53.888;11.464;2024-03-23T15:43:51;8.20;;;2.23;;
611;SDS011;293;53.888;11.464;2024-03-23T15:46:17;2.30;;;1.50;;
611;SDS011;293;53.888;11.464;2024-03-23T15:48:44;3.87;;;1.50;;
611;SDS011;293;53.888;11.464;2024-03-23T15:51:12;5.03;;;1.37;;
611;SDS011;293;53.888;11.464;2024-03-23T15:53:40;4.53;;;1.50;;
611;SDS011;293;53.888;11.464;2024-03-23T15:56:06;5.20;;;1.20;;
611;SDS011;293;53.888;11.464;2024-03-23T15:58:34;7.03;;;1.70;;
611;SDS011;293;53.888;11.464;2024-03-23T16:01:01;3.50;;;1.43;;
611;SDS011;293;53.888;11.464;2024-03-23T16:03:29;6.33;;;1.40;;
611;SDS011;293;53.888;11.464;2024-03-23T16:05:57;4.83;;;1.43;;
611;SDS011;293;53.888;11.464;2024-03-23T16:08:25;4.87;;;1.70;;
611;SDS011;293;53.888;11.464;2024-03-23T16:10:51;7.67;;;1.83;;
611;SDS011;293;53.888;11.464;2024-03-23T16:13:18;3.40;;;1.50;;
611;SDS011;293;53.888;11.464;2024-03-23T16:15:53;3.70;;;1.33;;
611;SDS011;293;53.888;11.464;2024-03-23T16:18:21;2.57;;;1.00;;